Terminal Aerodrome Forecast
Issued by NWS

Home | Current Version | Previous Version | Text Only | Print | Product List | Glossary On
Versions: 1 2 3 4 5 6 7 8 9 10 11 12 13 14 15 16 17 18 19 20 21
421
FTUS43 KBIS 311745 AAA
TAFDIK
TAF AMD
KDIK 311745Z 3118/0118 30025G35KT 5SM SHRA BR FEW013 OVC030
      TEMPO 3118/3121 3SM SHRA BR OVC015
     FM010000 31020G29KT P6SM OVC025
     FM010200 29013KT P6SM BKN020=

USA.gov is the U.S. government's official web portal to all federal, state and local government web resources and services.